createdAt,value
2022-11-12T00:02:40.557Z,8.63
2022-11-12T00:05:29.353Z,8.71
2022-11-12T00:08:16.047Z,8.73
2022-11-12T00:11:02.938Z,8.53
2022-11-12T00:13:49.919Z,8.65
2022-11-12T00:16:37.132Z,8.66
2022-11-12T00:19:23.983Z,8.57
2022-11-12T00:22:11.769Z,8.42
2022-11-12T00:24:58.440Z,8.54
2022-11-12T00:27:45.116Z,8.60
2022-11-12T00:30:31.874Z,8.54
2022-11-12T00:37:54.889Z,8.82
2022-11-12T00:40:42.248Z,8.81
2022-11-12T00:43:29.131Z,8.71
2022-11-12T00:46:15.848Z,8.62
2022-11-12T00:49:02.123Z,8.79
2022-11-12T00:51:48.901Z,8.77
2022-11-12T00:54:36.683Z,8.77
2022-11-12T00:57:23.043Z,8.71
2022-11-12T01:00:16.602Z,8.78
2022-11-12T01:03:03.155Z,8.79
2022-11-12T01:05:49.562Z,8.76
2022-11-12T01:08:36.906Z,8.80
2022-11-12T01:11:27.355Z,8.78
2022-11-12T01:14:15.085Z,8.76
2022-11-12T01:17:01.410Z,8.60
2022-11-12T01:19:48.083Z,8.74
2022-11-12T01:22:34.853Z,8.77
2022-11-12T01:25:21.714Z,8.84
2022-11-12T01:28:09.460Z,8.71
2022-11-12T01:30:56.081Z,8.62
2022-11-12T01:33:43.785Z,8.64
2022-11-12T01:36:34.672Z,8.67
2022-11-12T01:39:21.208Z,8.71
2022-11-12T01:42:08.215Z,8.62
2022-11-12T01:44:56.535Z,8.66
2022-11-12T01:47:45.132Z,8.37
2022-11-12T01:50:35.054Z,8.43
2022-11-12T01:53:24.016Z,8.27
2022-11-12T01:56:11.589Z,8.35
2022-11-12T01:59:03.778Z,8.26
2022-11-12T02:01:53.471Z,8.35
2022-11-12T02:04:43.102Z,8.41
2022-11-12T02:07:31.997Z,8.44
2022-11-12T02:10:19.239Z,8.35
2022-11-12T02:13:24.915Z,8.20
2022-11-12T02:16:13.174Z,8.24
2022-11-12T02:19:01.753Z,8.02
2022-11-12T02:21:50.532Z,8.05
2022-11-12T02:24:38.106Z,7.96
2022-11-12T02:27:25.392Z,7.74
2022-11-12T02:30:13.152Z,7.76
2022-11-12T02:32:59.735Z,7.64
2022-11-12T02:35:46.201Z,7.62
2022-11-12T02:38:34.890Z,7.89
2022-11-12T02:41:21.675Z,8.10
2022-11-12T02:44:08.139Z,8.04
2022-11-12T02:46:54.686Z,8.10
2022-11-12T02:49:41.200Z,8.13
2022-11-12T02:52:27.669Z,8.19
2022-11-12T02:55:15.784Z,7.95
2022-11-12T02:58:02.431Z,8.09
2022-11-12T03:00:49.881Z,7.96
2022-11-12T03:03:37.206Z,7.84
2022-11-12T03:06:23.787Z,7.83
2022-11-12T03:09:12.440Z,8.03
2022-11-12T03:12:00.739Z,7.94
2022-11-12T03:14:47.379Z,7.87
2022-11-12T03:17:36.181Z,7.90
2022-11-12T03:20:22.961Z,7.75
2022-11-12T03:23:11.505Z,7.82
2022-11-12T03:25:58.140Z,7.80
2022-11-12T03:28:46.243Z,7.78
2022-11-12T03:31:32.809Z,7.69
2022-11-12T03:34:19.448Z,7.68
2022-11-12T03:37:09.484Z,7.43
2022-11-12T03:39:56.348Z,7.43
2022-11-12T03:42:47.689Z,7.34
2022-11-12T03:45:35.962Z,7.33
2022-11-12T03:48:22.534Z,7.36
2022-11-12T03:51:09.945Z,7.39
2022-11-12T03:53:56.678Z,7.43
2022-11-12T03:56:43.259Z,7.49
2022-11-12T03:59:29.898Z,7.32
2022-11-12T04:02:17.828Z,7.18
2022-11-12T04:05:22.576Z,7.04
2022-11-12T04:08:31.603Z,7.01
2022-11-12T04:11:18.671Z,7.07
2022-11-12T04:14:05.417Z,6.76
2022-11-12T04:17:09.631Z,6.84
2022-11-12T04:20:15.247Z,6.76
2022-11-12T04:23:01.843Z,6.86
2022-11-12T04:26:05.775Z,6.88
2022-11-12T04:29:10.090Z,6.80
2022-11-12T04:31:56.583Z,6.85
2022-11-12T04:34:43.370Z,6.88
2022-11-12T04:37:44.595Z,6.88
2022-11-12T04:40:48.914Z,6.97
2022-11-12T04:43:53.282Z,6.79
2022-11-12T04:46:39.968Z,6.60
2022-11-12T04:49:26.738Z,6.94
2022-11-12T04:52:13.165Z,6.81
2022-11-12T04:55:01.490Z,6.91
2022-11-12T04:57:48.322Z,6.89
2022-11-12T05:00:35.218Z,6.93
2022-11-12T05:03:22.029Z,6.98
2022-11-12T05:06:29.945Z,7.00
2022-11-12T05:09:16.561Z,6.95
2022-11-12T05:12:05.360Z,6.88
2022-11-12T05:14:51.786Z,6.76
2022-11-12T05:17:38.422Z,6.88
2022-11-12T05:20:24.911Z,6.70
2022-11-12T05:23:11.523Z,6.85
2022-11-12T05:25:58.284Z,6.70
2022-11-12T05:28:46.829Z,6.71
2022-11-12T05:31:33.866Z,6.66
2022-11-12T05:34:23.088Z,6.76
2022-11-12T05:37:12.435Z,6.81
2022-11-12T05:39:59.080Z,6.56
2022-11-12T05:42:46.196Z,6.69
2022-11-12T05:45:34.661Z,6.77
2022-11-12T05:48:24.425Z,6.82
2022-11-12T05:51:14.181Z,6.89
2022-11-12T05:54:01.394Z,6.94
2022-11-12T05:56:48.477Z,6.95
2022-11-12T05:59:35.117Z,6.96
2022-11-12T06:02:23.333Z,6.92
2022-11-12T06:05:10.304Z,6.77
2022-11-12T06:07:57.317Z,6.82
2022-11-12T06:10:44.348Z,6.83
2022-11-12T06:13:30.840Z,6.78
2022-11-12T06:16:17.637Z,6.90
2022-11-12T06:19:06.206Z,6.96
2022-11-12T06:21:52.700Z,6.95
2022-11-12T06:24:39.321Z,7.11
2022-11-12T06:27:25.839Z,7.08
2022-11-12T06:30:13.947Z,7.16
2022-11-12T06:33:00.955Z,7.07
2022-11-12T06:35:58.033Z,6.93
2022-11-12T06:38:45.379Z,6.67
2022-11-12T06:41:32.174Z,6.91
2022-11-12T06:44:22.130Z,7.02
2022-11-12T06:47:10.718Z,7.21
2022-11-12T06:49:57.135Z,7.39
2022-11-12T06:52:45.313Z,7.98
2022-11-12T06:55:32.273Z,9.94
2022-11-12T06:58:18.880Z,13.17
2022-11-12T07:01:12.074Z,15.23
2022-11-12T07:03:59.727Z,16.71
2022-11-12T07:06:47.680Z,17.57
2022-11-12T07:09:36.206Z,17.73
2022-11-12T07:12:22.667Z,16.19
2022-11-12T07:15:10.338Z,14.59
2022-11-12T07:17:56.945Z,13.88
2022-11-12T07:20:43.913Z,13.30
2022-11-12T07:23:32.691Z,13.30
2022-11-12T07:26:23.146Z,15.57
2022-11-12T07:29:10.439Z,21.81
2022-11-12T07:31:57.405Z,25.75
2022-11-12T07:34:44.007Z,28.56
2022-11-12T07:37:31.115Z,29.99
2022-11-12T07:40:18.039Z,29.67
2022-11-12T07:43:06.631Z,32.45
2022-11-12T07:45:54.258Z,33.33
2022-11-12T07:48:41.805Z,35.19
2022-11-12T07:51:29.988Z,35.13
2022-11-12T07:54:16.659Z,35.14
2022-11-12T07:57:03.309Z,35.02
2022-11-12T07:59:51.635Z,35.24
2022-11-12T08:02:38.024Z,34.81
2022-11-12T08:05:24.804Z,34.56
2022-11-12T08:08:11.659Z,33.69
2022-11-12T08:11:00.204Z,34.97
2022-11-12T08:13:46.931Z,35.88
2022-11-12T08:16:35.447Z,36.25
2022-11-12T08:19:21.776Z,38.10
2022-11-12T08:22:08.632Z,39.24
2022-11-12T08:24:55.436Z,37.53
2022-11-12T08:27:42.206Z,32.75
2022-11-12T08:30:29.360Z,32.15
2022-11-12T08:33:18.233Z,31.80
2022-11-12T08:36:05.831Z,33.07
2022-11-12T08:38:53.697Z,32.99
2022-11-12T08:41:39.925Z,30.17
2022-11-12T08:44:26.896Z,29.39
2022-11-12T08:47:13.454Z,30.96
2022-11-12T08:50:01.258Z,31.10
2022-11-12T08:52:47.958Z,30.24
2022-11-12T08:55:35.892Z,30.13
2022-11-12T08:58:22.678Z,29.19
2022-11-12T09:01:10.144Z,28.87
2022-11-12T09:03:57.003Z,28.98
2022-11-12T09:06:48.723Z,28.69
2022-11-12T09:09:39.497Z,27.95
2022-11-12T09:12:26.097Z,27.46
2022-11-12T09:18:20.152Z,27.84
2022-11-12T09:21:08.878Z,28.00
2022-11-12T09:23:57.000Z,28.34
2022-11-12T09:26:43.284Z,28.77
2022-11-12T09:29:29.663Z,28.42
2022-11-12T09:32:16.477Z,28.46
2022-11-12T09:35:03.644Z,29.71
2022-11-12T09:37:50.106Z,29.29
2022-11-12T09:40:56.956Z,28.05
2022-11-12T09:43:48.904Z,30.23
2022-11-12T09:46:42.880Z,28.40
2022-11-12T09:49:33.915Z,27.52
2022-11-12T09:52:26.026Z,25.23
2022-11-12T09:55:20.718Z,22.42
2022-11-12T09:58:13.563Z,21.08
2022-11-12T10:01:04.530Z,20.48
2022-11-12T10:03:59.930Z,21.00
2022-11-12T10:06:53.016Z,21.00
2022-11-12T10:09:46.605Z,21.28
2022-11-12T10:12:43.444Z,20.84
2022-11-12T10:16:08.855Z,21.12
2022-11-12T10:19:08.945Z,21.92
2022-11-12T10:22:04.665Z,22.59
2022-11-12T10:24:51.828Z,24.12
2022-11-12T10:27:41.895Z,25.06
2022-11-12T10:30:28.480Z,26.11
2022-11-12T10:33:17.002Z,26.64
2022-11-12T10:36:25.782Z,26.86
2022-11-12T10:39:32.477Z,28.09
2022-11-12T10:42:20.902Z,29.48
2022-11-12T10:45:21.276Z,28.71
2022-11-12T10:48:27.520Z,27.54
2022-11-12T10:51:26.853Z,26.86
2022-11-12T10:54:36.095Z,24.73
2022-11-12T10:57:25.070Z,22.89
2022-11-12T11:00:20.586Z,22.63
2022-11-12T11:03:17.667Z,21.32
2022-11-12T11:06:08.075Z,20.70
2022-11-12T11:09:09.345Z,21.06
2022-11-12T11:11:56.070Z,20.61
2022-11-12T11:14:44.575Z,20.61
2022-11-12T11:17:31.594Z,20.62
2022-11-12T11:20:24.130Z,19.81
2022-11-12T11:23:20.464Z,19.80
2022-11-12T11:26:20.906Z,19.57
2022-11-12T11:29:21.900Z,18.75
2022-11-12T11:32:18.383Z,19.13
2022-11-12T11:35:15.320Z,19.49
2022-11-12T11:38:30.690Z,19.92
2022-11-12T11:41:44.961Z,19.91
2022-11-12T11:44:39.899Z,19.47
2022-11-12T11:47:59.433Z,18.23
2022-11-12T11:51:00.138Z,17.16
2022-11-12T11:53:58.194Z,18.04
2022-11-12T11:56:50.055Z,18.34
2022-11-12T11:59:51.878Z,18.41
2022-11-12T12:03:17.925Z,18.66
2022-11-12T12:06:21.297Z,19.70
2022-11-12T12:09:22.909Z,19.40
2022-11-12T12:12:23.846Z,19.73
2022-11-12T12:15:39.735Z,20.48
2022-11-12T12:18:40.473Z,20.27
2022-11-12T12:21:32.143Z,20.10
2022-11-12T12:24:25.006Z,20.36
2022-11-12T12:27:16.909Z,19.39
2022-11-12T12:30:05.425Z,18.47
2022-11-12T12:32:58.020Z,18.12
2022-11-12T12:35:53.942Z,18.51
2022-11-12T12:38:47.258Z,19.05
2022-11-12T12:41:41.663Z,19.77
2022-11-12T12:44:48.807Z,19.61
2022-11-12T12:47:38.363Z,19.05
2022-11-12T12:50:27.593Z,19.17
2022-11-12T12:53:19.987Z,19.56
2022-11-12T12:56:07.539Z,19.63
2022-11-12T12:58:55.240Z,20.43
2022-11-12T13:01:44.152Z,19.36
2022-11-12T13:04:56.217Z,18.43
2022-11-12T13:07:46.170Z,18.71
2022-11-12T13:10:53.911Z,19.08
2022-11-12T13:13:41.068Z,18.24
2022-11-12T13:16:59.497Z,17.73
2022-11-12T13:19:47.980Z,17.68
2022-11-12T13:22:49.287Z,17.75
2022-11-12T13:25:36.320Z,16.98
2022-11-12T13:28:22.902Z,17.07
2022-11-12T13:31:26.868Z,16.25
2022-11-12T13:34:22.138Z,15.61
2022-11-12T13:37:20.856Z,16.22
2022-11-12T13:40:14.607Z,16.48
2022-11-12T13:43:08.366Z,16.54
2022-11-12T13:45:58.175Z,16.31
2022-11-12T13:48:48.248Z,16.15
2022-11-12T13:51:55.877Z,15.27
2022-11-12T13:54:43.380Z,15.63
2022-11-12T13:57:32.565Z,15.64
2022-11-12T14:00:26.113Z,15.32
2022-11-12T14:03:18.577Z,15.22
2022-11-12T14:06:09.096Z,15.68
2022-11-12T14:09:21.456Z,15.71
2022-11-12T14:12:24.535Z,15.49
2022-11-12T14:15:26.423Z,15.25
2022-11-12T14:18:18.520Z,15.61
2022-11-12T14:21:12.295Z,15.36
2022-11-12T14:24:03.934Z,15.56
2022-11-12T14:26:51.056Z,15.55
2022-11-12T14:29:42.492Z,15.64
2022-11-12T14:32:36.824Z,15.64
2022-11-12T14:35:30.098Z,15.74
2022-11-12T14:38:20.115Z,15.68
2022-11-12T14:41:12.485Z,15.65
2022-11-12T14:44:12.817Z,15.42
2022-11-12T14:47:03.455Z,15.27
2022-11-12T14:49:51.192Z,15.14
2022-11-12T14:52:42.521Z,14.87
2022-11-12T14:55:33.428Z,14.62
2022-11-12T14:58:24.171Z,14.35
2022-11-12T15:04:39.951Z,13.65
2022-11-12T15:07:28.955Z,13.39
2022-11-12T15:10:37.317Z,13.10
2022-11-12T15:13:28.424Z,12.85
2022-11-12T15:16:22.481Z,12.77
2022-11-12T15:19:21.400Z,12.62
2022-11-12T15:22:21.145Z,12.15
2022-11-12T15:25:13.559Z,12.05
2022-11-12T15:28:14.384Z,12.06
2022-11-12T15:31:04.026Z,12.04
2022-11-12T15:33:51.016Z,11.71
2022-11-12T15:36:42.272Z,11.40
2022-11-12T15:39:30.694Z,11.24
2022-11-12T15:42:19.169Z,11.13
2022-11-12T15:45:15.091Z,11.00
2022-11-12T15:48:04.333Z,10.89
2022-11-12T15:50:51.130Z,10.75
2022-11-12T15:53:38.003Z,10.63
2022-11-12T15:56:25.993Z,10.33
2022-11-12T15:59:16.975Z,10.23
2022-11-12T16:02:03.877Z,9.97
2022-11-12T16:04:52.204Z,10.09
2022-11-12T16:07:39.372Z,10.04
2022-11-12T16:10:26.934Z,9.93
2022-11-12T16:13:20.293Z,9.88
2022-11-12T16:16:08.448Z,10.13
2022-11-12T16:18:55.564Z,9.80
2022-11-12T16:21:43.959Z,9.88
2022-11-12T16:24:31.024Z,9.80
2022-11-12T16:27:18.183Z,9.63
2022-11-12T16:30:14.573Z,9.50
2022-11-12T16:33:02.192Z,9.49
2022-11-12T16:35:48.694Z,9.19
2022-11-12T16:38:36.586Z,9.25
2022-11-12T16:41:23.249Z,9.26
2022-11-12T16:44:09.668Z,9.03
2022-11-12T16:46:56.454Z,9.16
2022-11-12T16:49:43.407Z,9.15
2022-11-12T16:52:30.235Z,9.10
2022-11-12T16:55:18.497Z,8.91
2022-11-12T16:58:05.205Z,8.70
2022-11-12T17:00:52.703Z,8.78
2022-11-12T17:03:39.932Z,8.62
2022-11-12T17:06:34.293Z,8.58
2022-11-12T17:09:21.166Z,8.71
2022-11-12T17:12:09.825Z,8.61
2022-11-12T17:14:56.661Z,8.58
2022-11-12T17:17:43.342Z,8.56
2022-11-12T17:20:30.770Z,8.58
2022-11-12T17:23:17.170Z,8.65
2022-11-12T17:26:05.333Z,8.76
2022-11-12T17:29:02.258Z,8.75
2022-11-12T17:31:50.760Z,8.64
2022-11-12T17:34:37.377Z,8.53
2022-11-12T17:37:24.230Z,8.62
2022-11-12T17:40:11.865Z,8.62
2022-11-12T17:42:58.243Z,8.44
2022-11-12T17:45:51.562Z,8.54
2022-11-12T17:48:39.153Z,8.53
2022-11-12T17:51:28.463Z,8.51
2022-11-12T17:54:15.981Z,8.42
2022-11-12T17:57:02.901Z,8.30
2022-11-12T17:59:49.637Z,8.34
2022-11-12T18:02:37.385Z,8.23
2022-11-12T18:05:24.070Z,8.24
2022-11-12T18:08:10.875Z,8.25
2022-11-12T18:10:58.145Z,8.26
2022-11-12T18:13:44.755Z,8.09
2022-11-12T18:16:32.056Z,8.00
2022-11-12T18:19:20.324Z,7.98
2022-11-12T18:22:07.309Z,7.86
2022-11-12T18:24:54.375Z,8.06
2022-11-12T18:27:41.739Z,8.07
2022-11-12T18:30:28.450Z,8.08
2022-11-12T18:33:15.488Z,7.91
2022-11-12T18:36:04.678Z,7.99
2022-11-12T18:38:52.648Z,8.02
2022-11-12T18:41:39.719Z,7.92
2022-11-12T18:44:27.274Z,7.68
2022-11-12T18:47:13.718Z,7.75
2022-11-12T18:50:05.487Z,8.00
2022-11-12T18:52:56.562Z,8.02
2022-11-12T18:55:43.872Z,7.95
2022-11-12T18:58:35.100Z,7.96
2022-11-12T19:01:25.031Z,7.62
2022-11-12T19:04:13.316Z,7.61
2022-11-12T19:07:00.671Z,7.67
2022-11-12T19:09:48.754Z,7.87
2022-11-12T19:12:35.408Z,7.92
2022-11-12T19:15:26.575Z,7.82
2022-11-12T19:18:16.439Z,7.58
2022-11-12T19:21:04.602Z,7.46
2022-11-12T19:23:54.768Z,7.44
2022-11-12T19:26:42.959Z,7.54
2022-11-12T19:29:31.969Z,7.56
2022-11-12T19:32:18.664Z,7.70
2022-11-12T19:35:07.573Z,7.55
2022-11-12T19:37:54.389Z,7.60
2022-11-12T19:40:42.380Z,7.61
2022-11-12T19:43:31.112Z,7.68
2022-11-12T19:46:18.226Z,7.58
2022-11-12T19:49:04.702Z,7.50
2022-11-12T19:51:51.962Z,7.40
2022-11-12T19:54:38.942Z,7.29
2022-11-12T19:57:27.182Z,7.25
2022-11-12T20:00:17.054Z,7.27
2022-11-12T20:03:04.908Z,7.19
2022-11-12T20:05:52.855Z,7.30
2022-11-12T20:08:40.461Z,7.21
2022-11-12T20:11:27.413Z,7.24
2022-11-12T20:14:14.269Z,7.17
2022-11-12T20:17:02.472Z,7.18
2022-11-12T20:19:49.374Z,7.22
2022-11-12T20:22:36.682Z,7.24
2022-11-12T20:25:24.299Z,7.19
2022-11-12T20:28:11.835Z,7.18
2022-11-12T20:31:06.918Z,7.08
2022-11-12T20:33:56.723Z,7.12
2022-11-12T20:36:44.093Z,7.10
2022-11-12T20:39:32.533Z,7.06
2022-11-12T20:42:19.378Z,6.93
2022-11-12T20:45:07.187Z,6.97
2022-11-12T20:47:56.070Z,6.98
2022-11-12T20:50:56.560Z,7.02
2022-11-12T20:53:51.566Z,6.84
2022-11-12T20:56:42.101Z,6.68
2022-11-12T20:59:29.235Z,6.74
2022-11-12T21:02:15.976Z,6.44
2022-11-12T21:05:03.288Z,6.33
2022-11-12T21:07:51.330Z,5.97
2022-11-12T21:10:38.816Z,5.84
2022-11-12T21:13:25.683Z,5.90
2022-11-12T21:16:14.797Z,5.92
2022-11-12T21:19:02.557Z,5.80
2022-11-12T21:21:49.939Z,5.99
2022-11-12T21:24:37.939Z,5.98
2022-11-12T21:27:24.692Z,5.99
2022-11-12T21:30:12.336Z,6.01
2022-11-12T21:32:59.825Z,5.88
2022-11-12T21:35:53.175Z,5.83
2022-11-12T21:38:39.940Z,5.78
2022-11-12T21:41:32.087Z,5.87
2022-11-12T21:44:19.044Z,6.07
2022-11-12T21:47:06.331Z,6.06
2022-11-12T21:49:53.008Z,5.99
2022-11-12T21:52:39.498Z,5.95
2022-11-12T21:55:26.783Z,6.02
2022-11-12T21:58:16.593Z,6.14
2022-11-12T22:01:11.095Z,5.99
2022-11-12T22:04:01.895Z,5.86
2022-11-12T22:06:48.816Z,5.77
2022-11-12T22:09:35.302Z,5.79
2022-11-12T22:12:21.964Z,5.72
2022-11-12T22:15:10.631Z,5.73
2022-11-12T22:17:59.370Z,5.71
2022-11-12T22:20:56.130Z,5.71
2022-11-12T22:23:43.018Z,5.72
2022-11-12T22:26:30.091Z,5.73
2022-11-12T22:29:17.067Z,5.81
2022-11-12T22:32:06.073Z,5.93
2022-11-12T22:34:52.632Z,5.94
2022-11-12T22:37:39.482Z,6.03
2022-11-12T22:40:26.514Z,6.17
2022-11-12T22:43:13.208Z,6.18
2022-11-12T22:46:06.701Z,6.03
2022-11-12T22:48:56.052Z,6.13
2022-11-12T22:51:42.847Z,6.12
2022-11-12T22:54:29.415Z,6.11
2022-11-12T22:57:16.310Z,5.73
2022-11-12T23:00:03.405Z,5.57
2022-11-12T23:06:08.976Z,5.53
2022-11-12T23:08:57.707Z,5.51
2022-11-12T23:11:44.572Z,5.67
2022-11-12T23:14:32.471Z,5.69
2022-11-12T23:17:19.064Z,5.39
2022-11-12T23:20:06.446Z,5.32
2022-11-12T23:22:54.823Z,5.16
2022-11-12T23:25:41.840Z,5.22
2022-11-12T23:28:29.169Z,5.22
2022-11-12T23:31:18.851Z,5.36
2022-11-12T23:34:05.734Z,5.41
2022-11-12T23:36:52.730Z,5.41
2022-11-12T23:39:40.915Z,5.19
2022-11-12T23:42:29.158Z,4.95
2022-11-12T23:45:15.913Z,4.94
2022-11-12T23:48:02.814Z,4.84
2022-11-12T23:50:51.032Z,5.04
2022-11-12T23:53:39.159Z,5.20
2022-11-12T23:56:27.409Z,5.05
2022-11-12T23:59:14.804Z,5.24
